sensor_id;sensor_type;location;lat;lon;timestamp;noise_LAeq;noise_LA_min;noise_LA_max;noise_LA01;noise_LA95
75467;Laerm;64050;50.634;3.062;2023-05-16T00:02:13;47.91;44.64;53.05;;
75467;Laerm;64050;50.634;3.062;2023-05-16T00:04:40;48.04;44.78;53.42;;
75467;Laerm;64050;50.634;3.062;2023-05-16T00:07:05;48.24;45.32;51.88;;
75467;Laerm;64050;50.634;3.062;2023-05-16T00:09:30;48.11;45.38;51.68;;
75467;Laerm;64050;50.634;3.062;2023-05-16T00:11:55;48.81;45.13;63.53;;
75467;Laerm;64050;50.634;3.062;2023-05-16T00:14:21;49.83;45.90;53.58;;
75467;Laerm;64050;50.634;3.062;2023-05-16T00:16:46;50.06;45.39;53.69;;
75467;Laerm;64050;50.634;3.062;2023-05-16T00:19:11;50.19;45.59;53.70;;
75467;Laerm;64050;50.634;3.062;2023-05-16T00:21:37;50.16;45.61;53.67;;
75467;Laerm;64050;50.634;3.062;2023-05-16T00:24:03;50.38;45.76;54.65;;
75467;Laerm;64050;50.634;3.062;2023-05-16T00:26:28;50.35;45.91;54.18;;
75467;Laerm;64050;50.634;3.062;2023-05-16T00:28:53;50.51;45.24;54.23;;
75467;Laerm;64050;50.634;3.062;2023-05-16T00:31:19;50.47;44.57;54.27;;
75467;Laerm;64050;50.634;3.062;2023-05-16T00:33:44;49.34;35.23;56.35;;
75467;Laerm;64050;50.634;3.062;2023-05-16T00:36:10;39.74;35.44;48.87;;
75467;Laerm;64050;50.634;3.062;2023-05-16T00:38:35;46.48;38.03;55.81;;
75467;Laerm;64050;50.634;3.062;2023-05-16T00:41:01;50.47;45.52;54.34;;
75467;Laerm;64050;50.634;3.062;2023-05-16T00:43:26;50.73;45.51;54.40;;
75467;Laerm;64050;50.634;3.062;2023-05-16T00:45:51;50.54;44.74;54.59;;
75467;Laerm;64050;50.634;3.062;2023-05-16T00:48:17;50.32;45.18;54.52;;
75467;Laerm;64050;50.634;3.062;2023-05-16T00:50:42;47.42;34.89;56.12;;
75467;Laerm;64050;50.634;3.062;2023-05-16T00:53:08;38.21;34.82;48.88;;
75467;Laerm;64050;50.634;3.062;2023-05-16T00:55:33;41.86;39.17;48.78;;
75467;Laerm;64050;50.634;3.062;2023-05-16T00:57:59;49.51;39.14;55.52;;
75467;Laerm;64050;50.634;3.062;2023-05-16T01:00:25;50.68;44.38;54.90;;
75467;Laerm;64050;50.634;3.062;2023-05-16T01:02:50;48.76;35.71;55.68;;
75467;Laerm;64050;50.634;3.062;2023-05-16T01:05:17;38.44;35.43;52.45;;
75467;Laerm;64050;50.634;3.062;2023-05-16T01:07:42;39.32;34.69;48.45;;
75467;Laerm;64050;50.634;3.062;2023-05-16T01:10:08;48.47;39.21;56.02;;
75467;Laerm;64050;50.634;3.062;2023-05-16T01:15:08;50.60;44.47;54.87;;
75467;Laerm;64050;50.634;3.062;2023-05-16T01:28:05;47.64;38.22;55.49;;
75467;Laerm;64050;50.634;3.062;2023-05-16T01:30:32;50.64;44.79;54.43;;
75467;Laerm;64050;50.634;3.062;2023-05-16T01:32:59;49.68;35.21;56.18;;
75467;Laerm;64050;50.634;3.062;2023-05-16T01:35:24;37.89;35.09;48.77;;
75467;Laerm;64050;50.634;3.062;2023-05-16T01:40:16;53.31;35.86;74.64;;
75467;Laerm;64050;50.634;3.062;2023-05-16T01:42:44;50.63;45.71;55.44;;
75467;Laerm;64050;50.634;3.062;2023-05-16T01:45:13;50.64;44.46;54.59;;
75467;Laerm;64050;50.634;3.062;2023-05-16T01:47:42;44.87;35.22;57.15;;
75467;Laerm;64050;50.634;3.062;2023-05-16T01:50:16;38.31;34.61;50.59;;
75467;Laerm;64050;50.634;3.062;2023-05-16T01:52:45;42.12;38.00;57.54;;
75467;Laerm;64050;50.634;3.062;2023-05-16T01:55:15;50.54;44.70;55.21;;
75467;Laerm;64050;50.634;3.062;2023-05-16T01:57:42;48.67;39.29;56.61;;
75467;Laerm;64050;50.634;3.062;2023-05-16T02:00:10;40.65;35.29;48.63;;
75467;Laerm;64050;50.634;3.062;2023-05-16T02:02:36;47.71;35.96;57.56;;
75467;Laerm;64050;50.634;3.062;2023-05-16T02:05:01;50.59;42.72;54.77;;
75467;Laerm;64050;50.634;3.062;2023-05-16T02:07:26;38.74;35.30;57.63;;
75467;Laerm;64050;50.634;3.062;2023-05-16T02:09:51;40.66;35.07;52.68;;
75467;Laerm;64050;50.634;3.062;2023-05-16T02:12:16;41.72;37.92;52.82;;
75467;Laerm;64050;50.634;3.062;2023-05-16T02:14:42;50.46;41.10;55.08;;
75467;Laerm;64050;50.634;3.062;2023-05-16T02:17:07;50.33;36.66;57.67;;
75467;Laerm;64050;50.634;3.062;2023-05-16T02:19:32;38.84;35.56;52.47;;
75467;Laerm;64050;50.634;3.062;2023-05-16T02:21:58;38.64;35.28;50.37;;
75467;Laerm;64050;50.634;3.062;2023-05-16T02:24:23;40.57;35.71;50.52;;
75467;Laerm;64050;50.634;3.062;2023-05-16T02:26:48;49.52;40.93;56.33;;
75467;Laerm;64050;50.634;3.062;2023-05-16T02:29:13;50.59;45.24;54.26;;
75467;Laerm;64050;50.634;3.062;2023-05-16T02:31:40;47.85;35.38;57.85;;
75467;Laerm;64050;50.634;3.062;2023-05-16T02:34:06;39.94;35.62;52.60;;
75467;Laerm;64050;50.634;3.062;2023-05-16T02:36:32;40.95;38.23;50.89;;
75467;Laerm;64050;50.634;3.062;2023-05-16T02:38:59;49.70;36.52;58.95;;
75467;Laerm;64050;50.634;3.062;2023-05-16T02:41:25;41.59;35.98;49.47;;
75467;Laerm;64050;50.634;3.062;2023-05-16T02:43:50;42.05;39.23;55.02;;
75467;Laerm;64050;50.634;3.062;2023-05-16T02:46:22;50.46;44.66;54.56;;
75467;Laerm;64050;50.634;3.062;2023-05-16T02:48:48;49.87;36.59;60.02;;
75467;Laerm;64050;50.634;3.062;2023-05-16T02:51:14;38.95;35.56;51.17;;
75467;Laerm;64050;50.634;3.062;2023-05-16T02:53:39;39.23;35.79;49.77;;
75467;Laerm;64050;50.634;3.062;2023-05-16T02:56:05;41.13;36.69;53.04;;
75467;Laerm;64050;50.634;3.062;2023-05-16T02:58:31;49.21;40.22;55.70;;
75467;Laerm;64050;50.634;3.062;2023-05-16T03:00:56;50.47;44.77;54.22;;
75467;Laerm;64050;50.634;3.062;2023-05-16T03:03:22;46.87;35.44;59.42;;
75467;Laerm;64050;50.634;3.062;2023-05-16T03:05:47;40.19;35.97;53.21;;
75467;Laerm;64050;50.634;3.062;2023-05-16T03:08:13;40.77;35.97;53.07;;
75467;Laerm;64050;50.634;3.062;2023-05-16T03:10:38;46.37;37.47;55.62;;
75467;Laerm;64050;50.634;3.062;2023-05-16T03:13:03;49.06;39.68;57.61;;
75467;Laerm;64050;50.634;3.062;2023-05-16T03:15:28;42.07;39.30;53.37;;
75467;Laerm;64050;50.634;3.062;2023-05-16T03:17:54;49.07;39.53;57.76;;
75467;Laerm;64050;50.634;3.062;2023-05-16T03:20:19;47.12;38.04;60.88;;
75467;Laerm;64050;50.634;3.062;2023-05-16T03:22:44;39.43;35.56;49.19;;
75467;Laerm;64050;50.634;3.062;2023-05-16T03:25:09;40.27;36.09;53.65;;
75467;Laerm;64050;50.634;3.062;2023-05-16T03:27:35;41.84;35.88;52.48;;
75467;Laerm;64050;50.634;3.062;2023-05-16T03:30:00;48.52;39.38;56.64;;
75467;Laerm;64050;50.634;3.062;2023-05-16T03:32:25;50.69;44.56;55.66;;
75467;Laerm;64050;50.634;3.062;2023-05-16T03:34:50;47.86;36.06;59.88;;
75467;Laerm;64050;50.634;3.062;2023-05-16T03:37:16;40.19;36.04;51.25;;
75467;Laerm;64050;50.634;3.062;2023-05-16T03:39:41;39.74;36.36;51.36;;
75467;Laerm;64050;50.634;3.062;2023-05-16T03:42:06;41.49;35.77;53.39;;
75467;Laerm;64050;50.634;3.062;2023-05-16T03:44:31;50.18;41.15;57.02;;
75467;Laerm;64050;50.634;3.062;2023-05-16T03:46:57;50.55;40.68;59.99;;
75467;Laerm;64050;50.634;3.062;2023-05-16T03:49:25;42.62;36.43;53.08;;
75467;Laerm;64050;50.634;3.062;2023-05-16T03:51:52;40.96;36.63;53.36;;
75467;Laerm;64050;50.634;3.062;2023-05-16T03:54:17;40.91;36.84;52.81;;
75467;Laerm;64050;50.634;3.062;2023-05-16T03:56:42;40.40;37.17;53.24;;
75467;Laerm;64050;50.634;3.062;2023-05-16T03:59:08;44.10;37.43;52.88;;
75467;Laerm;64050;50.634;3.062;2023-05-16T04:01:33;47.21;39.53;55.68;;
75467;Laerm;64050;50.634;3.062;2023-05-16T04:03:58;50.18;37.73;61.03;;
75467;Laerm;64050;50.634;3.062;2023-05-16T04:06:23;55.54;37.15;74.60;;
75467;Laerm;64050;50.634;3.062;2023-05-16T04:08:49;43.34;38.11;53.63;;
75467;Laerm;64050;50.634;3.062;2023-05-16T04:11:14;44.35;38.56;59.89;;
75467;Laerm;64050;50.634;3.062;2023-05-16T04:13:40;42.76;39.26;51.02;;
75467;Laerm;64050;50.634;3.062;2023-05-16T04:16:05;43.71;39.62;53.71;;
75467;Laerm;64050;50.634;3.062;2023-05-16T04:18:31;43.28;39.28;52.03;;
75467;Laerm;64050;50.634;3.062;2023-05-16T04:20:56;46.63;41.26;54.01;;
75467;Laerm;64050;50.634;3.062;2023-05-16T04:23:21;47.74;42.08;56.47;;
75467;Laerm;64050;50.634;3.062;2023-05-16T04:25:46;51.20;46.04;56.31;;
75467;Laerm;64050;50.634;3.062;2023-05-16T04:28:12;51.45;46.37;59.84;;
75467;Laerm;64050;50.634;3.062;2023-05-16T04:30:37;51.14;45.99;56.57;;
75467;Laerm;64050;50.634;3.062;2023-05-16T04:33:02;50.76;42.12;58.01;;
75467;Laerm;64050;50.634;3.062;2023-05-16T04:35:28;46.32;41.71;66.92;;
75467;Laerm;64050;50.634;3.062;2023-05-16T04:37:53;51.17;42.89;58.13;;
75467;Laerm;64050;50.634;3.062;2023-05-16T04:40:18;51.39;47.36;55.30;;
75467;Laerm;64050;50.634;3.062;2023-05-16T04:42:43;51.10;46.55;54.61;;
75467;Laerm;64050;50.634;3.062;2023-05-16T04:45:09;51.33;46.67;56.66;;
75467;Laerm;64050;50.634;3.062;2023-05-16T04:47:36;51.43;46.90;61.69;;
75467;Laerm;64050;50.634;3.062;2023-05-16T04:50:02;51.25;41.60;57.42;;
75467;Laerm;64050;50.634;3.062;2023-05-16T04:52:27;45.34;40.40;53.31;;
75467;Laerm;64050;50.634;3.062;2023-05-16T04:54:52;45.07;40.54;51.65;;
75467;Laerm;64050;50.634;3.062;2023-05-16T04:57:17;48.61;43.14;59.56;;
75467;Laerm;64050;50.634;3.062;2023-05-16T04:59:42;51.46;46.48;55.53;;
75467;Laerm;64050;50.634;3.062;2023-05-16T05:02:08;51.43;45.70;57.45;;
75467;Laerm;64050;50.634;3.062;2023-05-16T05:04:33;48.52;41.80;59.07;;
75467;Laerm;64050;50.634;3.062;2023-05-16T05:06:58;46.23;41.04;54.63;;
75467;Laerm;64050;50.634;3.062;2023-05-16T05:09:24;48.09;40.54;77.67;;
75467;Laerm;64050;50.634;3.062;2023-05-16T05:11:49;50.91;42.60;57.89;;
75467;Laerm;64050;50.634;3.062;2023-05-16T05:14:15;54.15;46.83;65.77;;
75467;Laerm;64050;50.634;3.062;2023-05-16T05:16:40;46.57;41.55;61.80;;
75467;Laerm;64050;50.634;3.062;2023-05-16T05:19:05;45.83;41.46;52.25;;
75467;Laerm;64050;50.634;3.062;2023-05-16T05:21:30;49.73;41.08;57.71;;
75467;Laerm;64050;50.634;3.062;2023-05-16T05:23:56;48.11;39.17;63.50;;
75467;Laerm;64050;50.634;3.062;2023-05-16T05:26:21;44.07;39.62;50.35;;
75467;Laerm;64050;50.634;3.062;2023-05-16T05:28:47;45.54;40.68;59.77;;
75467;Laerm;64050;50.634;3.062;2023-05-16T05:31:13;50.99;44.16;58.31;;
75467;Laerm;64050;50.634;3.062;2023-05-16T05:33:38;51.25;40.79;65.30;;
75467;Laerm;64050;50.634;3.062;2023-05-16T05:36:03;47.97;41.18;67.52;;
75467;Laerm;64050;50.634;3.062;2023-05-16T05:38:29;50.33;41.15;73.33;;
75467;Laerm;64050;50.634;3.062;2023-05-16T05:40:54;46.62;41.52;62.45;;
75467;Laerm;64050;50.634;3.062;2023-05-16T05:43:19;50.75;44.32;64.11;;
75467;Laerm;64050;50.634;3.062;2023-05-16T05:45:45;51.06;46.57;62.22;;
75467;Laerm;64050;50.634;3.062;2023-05-16T05:48:10;48.11;40.25;57.73;;
75467;Laerm;64050;50.634;3.062;2023-05-16T05:50:35;45.53;40.62;57.45;;
75467;Laerm;64050;50.634;3.062;2023-05-16T05:53:01;47.99;41.58;63.31;;
75467;Laerm;64050;50.634;3.062;2023-05-16T05:55:26;50.12;43.75;55.41;;
75467;Laerm;64050;50.634;3.062;2023-05-16T05:57:51;47.06;43.18;59.70;;
75467;Laerm;64050;50.634;3.062;2023-05-16T06:00:16;47.66;43.07;56.51;;
75467;Laerm;64050;50.634;3.062;2023-05-16T06:02:42;53.27;46.51;71.90;;
75467;Laerm;64050;50.634;3.062;2023-05-16T06:05:07;50.64;42.71;63.38;;
75467;Laerm;64050;50.634;3.062;2023-05-16T06:07:32;45.75;41.23;59.50;;
75467;Laerm;64050;50.634;3.062;2023-05-16T06:09:57;48.49;41.29;63.37;;
75467;Laerm;64050;50.634;3.062;2023-05-16T06:12:23;45.77;40.92;60.21;;
75467;Laerm;64050;50.634;3.062;2023-05-16T06:14:49;48.68;42.41;64.15;;
75467;Laerm;64050;50.634;3.062;2023-05-16T06:17:14;51.54;45.56;65.55;;
75467;Laerm;64050;50.634;3.062;2023-05-16T06:19:40;51.02;43.68;65.22;;
75467;Laerm;64050;50.634;3.062;2023-05-16T06:22:05;51.04;44.37;66.59;;
75467;Laerm;64050;50.634;3.062;2023-05-16T06:24:30;49.88;44.45;64.34;;
75467;Laerm;64050;50.634;3.062;2023-05-16T06:26:55;52.22;46.92;60.63;;
75467;Laerm;64050;50.634;3.062;2023-05-16T06:29:21;51.60;46.02;61.85;;
75467;Laerm;64050;50.634;3.062;2023-05-16T06:31:46;50.82;44.76;61.16;;
75467;Laerm;64050;50.634;3.062;2023-05-16T06:34:11;51.98;45.53;62.23;;
75467;Laerm;64050;50.634;3.062;2023-05-16T06:36:36;53.07;46.06;64.54;;
75467;Laerm;64050;50.634;3.062;2023-05-16T06:39:02;49.60;45.89;61.37;;
75467;Laerm;64050;50.634;3.062;2023-05-16T06:41:27;49.33;45.75;59.66;;
75467;Laerm;64050;50.634;3.062;2023-05-16T06:43:52;50.88;45.02;66.37;;
75467;Laerm;64050;50.634;3.062;2023-05-16T06:46:17;57.12;46.21;80.47;;
75467;Laerm;64050;50.634;3.062;2023-05-16T06:48:42;53.92;50.15;68.85;;
75467;Laerm;64050;50.634;3.062;2023-05-16T06:51:08;53.68;45.81;71.24;;
75467;Laerm;64050;50.634;3.062;2023-05-16T06:53:33;49.12;45.49;60.31;;
75467;Laerm;64050;50.634;3.062;2023-05-16T06:55:59;49.41;44.27;63.83;;
75467;Laerm;64050;50.634;3.062;2023-05-16T06:58:24;50.55;43.73;68.96;;
75467;Laerm;64050;50.634;3.062;2023-05-16T07:00:49;51.66;44.58;69.75;;
75467;Laerm;64050;50.634;3.062;2023-05-16T07:03:15;49.69;43.21;65.00;;
75467;Laerm;64050;50.634;3.062;2023-05-16T07:05:40;51.97;44.83;67.03;;
75467;Laerm;64050;50.634;3.062;2023-05-16T07:08:07;51.95;46.69;67.70;;
75467;Laerm;64050;50.634;3.062;2023-05-16T07:10:32;53.55;47.08;70.82;;
75467;Laerm;64050;50.634;3.062;2023-05-16T07:12:57;50.06;42.84;63.67;;
75467;Laerm;64050;50.634;3.062;2023-05-16T07:15:25;52.04;44.41;69.96;;
75467;Laerm;64050;50.634;3.062;2023-05-16T07:17:50;54.20;47.77;73.63;;
75467;Laerm;64050;50.634;3.062;2023-05-16T07:20:15;51.57;47.89;59.51;;
75467;Laerm;64050;50.634;3.062;2023-05-16T07:22:41;50.13;44.47;61.73;;
75467;Laerm;64050;50.634;3.062;2023-05-16T07:25:06;52.60;47.31;77.48;;
75467;Laerm;64050;50.634;3.062;2023-05-16T07:27:36;50.21;43.39;66.72;;
75467;Laerm;64050;50.634;3.062;2023-05-16T07:30:01;52.55;43.13;67.06;;
75467;Laerm;64050;50.634;3.062;2023-05-16T07:32:27;52.67;44.06;66.91;;
75467;Laerm;64050;50.634;3.062;2023-05-16T07:34:52;52.14;44.09;71.97;;
75467;Laerm;64050;50.634;3.062;2023-05-16T07:37:17;51.59;45.10;61.87;;
75467;Laerm;64050;50.634;3.062;2023-05-16T07:39:44;52.41;47.60;71.81;;
75467;Laerm;64050;50.634;3.062;2023-05-16T07:42:09;50.11;43.95;64.09;;
75467;Laerm;64050;50.634;3.062;2023-05-16T07:44:34;49.46;43.78;64.33;;
75467;Laerm;64050;50.634;3.062;2023-05-16T07:47:00;51.58;44.55;69.67;;
75467;Laerm;64050;50.634;3.062;2023-05-16T07:49:25;52.32;46.11;69.99;;
75467;Laerm;64050;50.634;3.062;2023-05-16T07:51:50;49.79;44.75;61.23;;
75467;Laerm;64050;50.634;3.062;2023-05-16T07:54:16;50.11;44.30;65.42;;
75467;Laerm;64050;50.634;3.062;2023-05-16T07:56:41;51.26;46.69;66.71;;
75467;Laerm;64050;50.634;3.062;2023-05-16T07:59:06;48.65;43.48;62.05;;
75467;Laerm;64050;50.634;3.062;2023-05-16T08:01:31;48.37;42.94;60.10;;
75467;Laerm;64050;50.634;3.062;2023-05-16T08:03:57;49.33;44.89;61.62;;
75467;Laerm;64050;50.634;3.062;2023-05-16T08:06:22;49.11;45.53;61.02;;
75467;Laerm;64050;50.634;3.062;2023-05-16T08:08:47;51.68;46.92;64.27;;
75467;Laerm;64050;50.634;3.062;2023-05-16T08:11:12;53.15;47.22;75.14;;
75467;Laerm;64050;50.634;3.062;2023-05-16T08:13:38;49.78;42.45;68.35;;
75467;Laerm;64050;50.634;3.062;2023-05-16T08:16:03;53.03;42.60;75.14;;
75467;Laerm;64050;50.634;3.062;2023-05-16T08:18:28;56.03;44.87;74.09;;
75467;Laerm;64050;50.634;3.062;2023-05-16T08:20:53;54.99;47.44;77.47;;
75467;Laerm;64050;50.634;3.062;2023-05-16T08:23:19;58.24;49.96;67.56;;
75467;Laerm;64050;50.634;3.062;2023-05-16T08:25:45;58.80;55.18;64.98;;
75467;Laerm;64050;50.634;3.062;2023-05-16T08:28:10;60.68;54.70;66.64;;
75467;Laerm;64050;50.634;3.062;2023-05-16T08:30:35;61.43;56.18;65.74;;
75467;Laerm;64050;50.634;3.062;2023-05-16T08:33:00;59.36;54.40;69.76;;
75467;Laerm;64050;50.634;3.062;2023-05-16T08:35:29;58.75;55.62;66.34;;
75467;Laerm;64050;50.634;3.062;2023-05-16T08:37:54;59.19;55.24;74.58;;
75467;Laerm;64050;50.634;3.062;2023-05-16T08:40:19;58.76;55.08;65.59;;
75467;Laerm;64050;50.634;3.062;2023-05-16T08:42:46;58.37;54.45;62.30;;
75467;Laerm;64050;50.634;3.062;2023-05-16T08:45:12;58.21;54.83;63.60;;
75467;Laerm;64050;50.634;3.062;2023-05-16T08:47:38;58.63;53.97;65.56;;
75467;Laerm;64050;50.634;3.062;2023-05-16T08:50:05;59.30;55.99;66.99;;
75467;Laerm;64050;50.634;3.062;2023-05-16T08:52:33;58.75;55.38;68.32;;
75467;Laerm;64050;50.634;3.062;2023-05-16T08:55:02;58.98;55.15;68.50;;
75467;Laerm;64050;50.634;3.062;2023-05-16T08:57:32;60.15;55.59;72.51;;
75467;Laerm;64050;50.634;3.062;2023-05-16T08:59:58;59.28;55.11;69.95;;
75467;Laerm;64050;50.634;3.062;2023-05-16T09:02:23;59.10;55.41;73.12;;
75467;Laerm;64050;50.634;3.062;2023-05-16T09:04:49;58.69;54.89;65.76;;
75467;Laerm;64050;50.634;3.062;2023-05-16T09:07:14;58.55;54.90;63.26;;
75467;Laerm;64050;50.634;3.062;2023-05-16T09:09:40;58.61;55.28;67.06;;
75467;Laerm;64050;50.634;3.062;2023-05-16T09:12:06;59.44;54.40;73.32;;
75467;Laerm;64050;50.634;3.062;2023-05-16T09:14:31;59.10;55.19;75.84;;
75467;Laerm;64050;50.634;3.062;2023-05-16T09:17:06;58.78;55.26;71.02;;
75467;Laerm;64050;50.634;3.062;2023-05-16T09:19:38;58.82;54.38;73.83;;
75467;Laerm;64050;50.634;3.062;2023-05-16T09:22:13;56.73;47.53;79.26;;
75467;Laerm;64050;50.634;3.062;2023-05-16T09:24:39;54.68;49.36;72.30;;
75467;Laerm;64050;50.634;3.062;2023-05-16T09:27:11;58.23;49.99;75.96;;
75467;Laerm;64050;50.634;3.062;2023-05-16T09:29:40;55.63;49.64;74.80;;
75467;Laerm;64050;50.634;3.062;2023-05-16T09:32:12;55.17;49.27;72.66;;
75467;Laerm;64050;50.634;3.062;2023-05-16T09:34:45;56.11;49.37;74.28;;
75467;Laerm;64050;50.634;3.062;2023-05-16T09:37:12;55.05;49.75;73.97;;
75467;Laerm;64050;50.634;3.062;2023-05-16T09:39:39;56.85;49.53;76.14;;
75467;Laerm;64050;50.634;3.062;2023-05-16T09:42:10;51.37;47.53;63.42;;
75467;Laerm;64050;50.634;3.062;2023-05-16T09:44:36;52.97;48.25;68.62;;
75467;Laerm;64050;50.634;3.062;2023-05-16T09:47:01;52.35;47.24;61.67;;
75467;Laerm;64050;50.634;3.062;2023-05-16T09:49:27;52.49;47.43;61.85;;
75467;Laerm;64050;50.634;3.062;2023-05-16T09:51:52;53.08;49.17;69.29;;
75467;Laerm;64050;50.634;3.062;2023-05-16T09:54:28;53.44;49.47;64.64;;
75467;Laerm;64050;50.634;3.062;2023-05-16T09:56:53;55.21;48.91;75.09;;
75467;Laerm;64050;50.634;3.062;2023-05-16T09:59:19;54.06;49.31;66.98;;
75467;Laerm;64050;50.634;3.062;2023-05-16T10:01:45;53.20;49.13;61.44;;
75467;Laerm;64050;50.634;3.062;2023-05-16T10:04:11;53.88;49.39;68.12;;
75467;Laerm;64050;50.634;3.062;2023-05-16T10:06:40;53.98;50.13;63.89;;
75467;Laerm;64050;50.634;3.062;2023-05-16T10:09:06;54.47;48.84;72.68;;
75467;Laerm;64050;50.634;3.062;2023-05-16T10:11:32;53.63;48.78;68.38;;
75467;Laerm;64050;50.634;3.062;2023-05-16T10:13:57;53.65;49.32;60.12;;
75467;Laerm;64050;50.634;3.062;2023-05-16T10:16:23;53.04;48.88;60.69;;
75467;Laerm;64050;50.634;3.062;2023-05-16T10:18:49;53.87;49.41;60.14;;
75467;Laerm;64050;50.634;3.062;2023-05-16T10:21:15;53.39;49.50;61.45;;
75467;Laerm;64050;50.634;3.062;2023-05-16T10:23:42;53.44;49.05;59.46;;
75467;Laerm;64050;50.634;3.062;2023-05-16T10:26:08;53.79;49.34;61.99;;
75467;Laerm;64050;50.634;3.062;2023-05-16T10:28:34;55.29;49.03;62.15;;
75467;Laerm;64050;50.634;3.062;2023-05-16T10:31:00;53.25;48.83;61.23;;
75467;Laerm;64050;50.634;3.062;2023-05-16T10:33:26;54.19;49.54;67.92;;
75467;Laerm;64050;50.634;3.062;2023-05-16T10:35:52;54.19;49.51;63.49;;
75467;Laerm;64050;50.634;3.062;2023-05-16T10:38:17;53.91;49.59;64.67;;
75467;Laerm;64050;50.634;3.062;2023-05-16T10:40:43;52.72;48.11;59.93;;
75467;Laerm;64050;50.634;3.062;2023-05-16T10:43:08;53.28;48.66;64.63;;
75467;Laerm;64050;50.634;3.062;2023-05-16T10:45:34;54.17;49.13;64.18;;
75467;Laerm;64050;50.634;3.062;2023-05-16T10:48:03;55.65;49.64;68.97;;
75467;Laerm;64050;50.634;3.062;2023-05-16T10:50:39;55.31;50.48;68.90;;
75467;Laerm;64050;50.634;3.062;2023-05-16T10:55:37;54.93;49.13;64.65;;
75467;Laerm;64050;50.634;3.062;2023-05-16T10:58:03;55.35;50.15;66.92;;
75467;Laerm;64050;50.634;3.062;2023-05-16T11:00:28;55.50;49.67;65.98;;
75467;Laerm;64050;50.634;3.062;2023-05-16T11:02:54;54.77;49.63;66.66;;
75467;Laerm;64050;50.634;3.062;2023-05-16T11:05:28;54.21;49.14;61.41;;
75467;Laerm;64050;50.634;3.062;2023-05-16T11:08:04;54.73;49.98;72.50;;
75467;Laerm;64050;50.634;3.062;2023-05-16T11:10:29;55.03;49.79;71.23;;
75467;Laerm;64050;50.634;3.062;2023-05-16T11:12:55;54.22;49.52;61.54;;
75467;Laerm;64050;50.634;3.062;2023-05-16T11:15:27;55.37;49.11;71.86;;
75467;Laerm;64050;50.634;3.062;2023-05-16T11:20:31;54.24;49.29;69.46;;
75467;Laerm;64050;50.634;3.062;2023-05-16T11:23:16;54.94;50.45;64.63;;
75467;Laerm;64050;50.634;3.062;2023-05-16T11:25:43;54.53;49.61;63.66;;
75467;Laerm;64050;50.634;3.062;2023-05-16T11:28:09;55.56;50.34;68.52;;
75467;Laerm;64050;50.634;3.062;2023-05-16T11:30:36;55.73;51.12;65.35;;
75467;Laerm;64050;50.634;3.062;2023-05-16T11:33:05;54.73;50.31;65.58;;
75467;Laerm;64050;50.634;3.062;2023-05-16T11:35:31;54.51;50.28;63.64;;
75467;Laerm;64050;50.634;3.062;2023-05-16T11:37:56;56.92;50.24;72.74;;
75467;Laerm;64050;50.634;3.062;2023-05-16T11:40:21;56.27;49.65;71.99;;
75467;Laerm;64050;50.634;3.062;2023-05-16T11:42:47;55.80;50.04;69.11;;
75467;Laerm;64050;50.634;3.062;2023-05-16T11:45:16;56.00;49.43;71.49;;
75467;Laerm;64050;50.634;3.062;2023-05-16T11:47:42;56.37;49.87;79.25;;
75467;Laerm;64050;50.634;3.062;2023-05-16T11:50:18;56.80;50.73;70.53;;
75467;Laerm;64050;50.634;3.062;2023-05-16T11:52:44;56.07;50.62;67.79;;
75467;Laerm;64050;50.634;3.062;2023-05-16T11:55:10;56.43;49.57;69.37;;
75467;Laerm;64050;50.634;3.062;2023-05-16T11:57:38;57.44;50.30;74.38;;
75467;Laerm;64050;50.634;3.062;2023-05-16T12:00:19;57.70;50.25;74.19;;
75467;Laerm;64050;50.634;3.062;2023-05-16T12:02:44;57.77;49.93;70.70;;
75467;Laerm;64050;50.634;3.062;2023-05-16T12:05:11;56.84;50.44;70.33;;
75467;Laerm;64050;50.634;3.062;2023-05-16T12:07:37;56.21;50.20;69.79;;
75467;Laerm;64050;50.634;3.062;2023-05-16T12:10:06;56.39;50.00;71.97;;
75467;Laerm;64050;50.634;3.062;2023-05-16T12:12:32;56.07;49.72;71.18;;
75467;Laerm;64050;50.634;3.062;2023-05-16T12:14:57;55.71;50.59;70.52;;
75467;Laerm;64050;50.634;3.062;2023-05-16T12:17:22;55.34;50.24;65.00;;
75467;Laerm;64050;50.634;3.062;2023-05-16T12:19:48;54.59;49.32;68.30;;
75467;Laerm;64050;50.634;3.062;2023-05-16T12:22:17;54.34;49.23;65.69;;
75467;Laerm;64050;50.634;3.062;2023-05-16T12:24:43;54.13;48.65;66.11;;
75467;Laerm;64050;50.634;3.062;2023-05-16T12:27:08;53.28;47.66;70.69;;
75467;Laerm;64050;50.634;3.062;2023-05-16T12:29:34;52.83;47.21;67.45;;
75467;Laerm;64050;50.634;3.062;2023-05-16T12:31:59;51.13;46.34;66.92;;
75467;Laerm;64050;50.634;3.062;2023-05-16T12:34:27;52.07;46.27;68.03;;
75467;Laerm;64050;50.634;3.062;2023-05-16T12:36:52;53.88;46.57;75.72;;
75467;Laerm;64050;50.634;3.062;2023-05-16T12:39:18;52.58;46.81;65.83;;
75467;Laerm;64050;50.634;3.062;2023-05-16T12:41:44;54.81;46.09;81.21;;
75467;Laerm;64050;50.634;3.062;2023-05-16T12:44:10;51.47;45.60;65.52;;
75467;Laerm;64050;50.634;3.062;2023-05-16T12:46:39;51.86;45.73;65.97;;
75467;Laerm;64050;50.634;3.062;2023-05-16T12:49:04;52.85;46.21;63.96;;
75467;Laerm;64050;50.634;3.062;2023-05-16T12:51:30;51.89;45.00;59.59;;
75467;Laerm;64050;50.634;3.062;2023-05-16T12:53:56;52.74;45.76;73.34;;
75467;Laerm;64050;50.634;3.062;2023-05-16T12:56:21;53.37;46.92;64.06;;
75467;Laerm;64050;50.634;3.062;2023-05-16T12:58:49;52.60;47.05;65.05;;
75467;Laerm;64050;50.634;3.062;2023-05-16T13:01:15;53.83;47.09;70.28;;
75467;Laerm;64050;50.634;3.062;2023-05-16T13:03:40;52.23;46.25;70.74;;
75467;Laerm;64050;50.634;3.062;2023-05-16T13:06:05;50.92;46.10;60.53;;
75467;Laerm;64050;50.634;3.062;2023-05-16T13:08:30;52.09;45.86;70.00;;
75467;Laerm;64050;50.634;3.062;2023-05-16T13:10:56;51.00;45.20;64.57;;
75467;Laerm;64050;50.634;3.062;2023-05-16T13:13:21;50.29;45.23;60.70;;
75467;Laerm;64050;50.634;3.062;2023-05-16T13:15:46;51.72;46.32;62.80;;
75467;Laerm;64050;50.634;3.062;2023-05-16T13:18:15;51.19;46.03;63.38;;
75467;Laerm;64050;50.634;3.062;2023-05-16T13:20:40;50.50;45.58;59.73;;
75467;Laerm;64050;50.634;3.062;2023-05-16T13:23:05;50.09;45.65;59.61;;
75467;Laerm;64050;50.634;3.062;2023-05-16T13:25:31;54.64;47.15;72.05;;
75467;Laerm;64050;50.634;3.062;2023-05-16T13:27:57;51.53;46.77;59.38;;
75467;Laerm;64050;50.634;3.062;2023-05-16T13:30:22;52.31;46.20;73.78;;
75467;Laerm;64050;50.634;3.062;2023-05-16T13:32:48;50.63;45.72;61.17;;
75467;Laerm;64050;50.634;3.062;2023-05-16T13:35:13;52.02;46.45;66.67;;
75467;Laerm;64050;50.634;3.062;2023-05-16T13:37:39;51.54;45.99;70.69;;
75467;Laerm;64050;50.634;3.062;2023-05-16T13:40:05;50.13;46.22;58.94;;
75467;Laerm;64050;50.634;3.062;2023-05-16T13:42:34;50.44;45.91;61.31;;
75467;Laerm;64050;50.634;3.062;2023-05-16T13:45:00;50.07;45.58;58.75;;
75467;Laerm;64050;50.634;3.062;2023-05-16T13:47:25;50.67;46.46;58.84;;
75467;Laerm;64050;50.634;3.062;2023-05-16T13:49:50;50.76;46.61;59.18;;
75467;Laerm;64050;50.634;3.062;2023-05-16T13:52:15;50.09;45.51;60.15;;
75467;Laerm;64050;50.634;3.062;2023-05-16T13:54:41;50.02;45.18;59.82;;
75467;Laerm;64050;50.634;3.062;2023-05-16T13:57:06;50.15;45.51;62.72;;
75467;Laerm;64050;50.634;3.062;2023-05-16T13:59:32;50.61;45.53;68.23;;